マカオ の空港の天気 - METARとTAF

マカオ国際空港 ( VMMC / MFM ) - マカオ タイパ島
飛行場実況気象(Metar)
観測時間05/25 18:30 CST (05/25 10:30 UTC)
風向・風速北 4m/s
視程9000m
天気現象
少しの雲 雲底高度 760m
全天の4割程度の雲 雲底高度 1220m
気温27℃
湿度79%
気圧1008hPa
METARVMMC 251030Z 01008KT 9000 FEW025 SCT040 27/23 Q1008 NOSIG
過去の天気等 Google飛行場航空写真 Wunderground天気予報

過去48時間のMETAR

飛行場予報(TAF)
発表時間: 5/25 13:03 CST (5/25 05:03 UTC)
予報対象時間: 25日14時 CST ~ 26日20時 CST
風向・風速北北東 5m/s
視程8,000m
少しの雲 雲底高度 610m
25日17時 CST ~ 26日2時 CST に一時的に
風向・風速東 4m/s
26日14時 CST ~ 26日16時 CST に徐々に
風向・風速東 5m/s
TAF VMMC 250503Z 2506/2612 02010KT 8000 FEW020
TEMPO 2509/2518 08008KT
BECMG 2606/2608 10010KT